Time;durP1;ratioP1;P1;durP2;ratioP2;P2;SDS_P1;SDS_P2;PMS_P1;PMS_P2;Temp;Humidity;BMP_temperature;BMP_pressure;BME280_temperature;BME280_humidity;BME280_pressure;Samples;Min_cycle;Max_cycle;Signal;HPM_P1;HPM_P2
2021/11/16 01:19:13;;;;;;;26.33;21.47;;;6.30;98.30;;;;;;4991922;23;20446;-81
2021/11/16 01:21:16;;;;;;;28.50;21.17;;;6.30;98.30;;;;;;5034287;23;20401;-81
2021/11/16 01:23:20;;;;;;;31.03;21.73;;;6.30;98.30;;;;;;5142836;23;20400;-81
2021/11/16 01:25:24;;;;;;;25.23;19.80;;;6.20;98.30;;;;;;5148940;23;20400;-81
2021/11/16 01:27:33;;;;;;;30.07;21.40;;;6.20;98.30;;;;;;5149007;23;20424;-81
2021/11/16 01:29:38;;;;;;;28.67;21.87;;;6.20;98.30;;;;;;5140106;23;20456;-81
2021/11/16 01:31:41;;;;;;;27.37;20.60;;;6.20;98.30;;;;;;5149228;23;20398;-81
2021/11/16 01:33:49;;;;;;;31.23;22.50;;;6.20;98.30;;;;;;5148549;23;20512;-81
2021/11/16 01:35:54;;;;;;;33.40;23.10;;;6.20;98.30;;;;;;5148577;23;20388;-81
2021/11/16 01:37:57;;;;;;;28.20;21.47;;;6.20;98.30;;;;;;5150464;23;20420;-81
2021/11/16 01:40:00;;;;;;;29.80;21.67;;;6.20;98.30;;;;;;5140041;23;20409;-81
2021/11/16 01:42:04;;;;;;;34.07;23.30;;;6.10;98.30;;;;;;5149047;23;20914;-82
2021/11/16 01:44:07;;;;;;;32.37;23.20;;;6.10;98.30;;;;;;5148800;23;20425;-81
2021/11/16 01:46:15;;;;;;;32.23;23.37;;;6.00;98.30;;;;;;5140412;23;20429;-81
2021/11/16 01:48:18;;;;;;;30.70;23.20;;;6.10;98.30;;;;;;5148497;23;20440;-81
2021/11/16 01:50:23;;;;;;;31.30;22.80;;;6.10;98.30;;;;;;5147469;23;20437;-82
2021/11/16 01:52:27;;;;;;;33.43;22.53;;;6.20;98.30;;;;;;5140438;23;20462;-82
2021/11/16 01:54:30;;;;;;;33.93;22.43;;;6.10;98.30;;;;;;5148474;23;20433;-82
2021/11/16 01:56:36;;;;;;;31.83;22.83;;;6.10;98.30;;;;;;5148956;23;20400;-82
2021/11/16 01:58:42;;;;;;;30.50;23.20;;;6.10;98.30;;;;;;5140194;23;20430;-82
2021/11/16 02:00:46;;;;;;;29.63;23.37;;;6.00;98.30;;;;;;5140383;23;20407;-82
2021/11/16 02:02:49;;;;;;;32.53;22.00;;;6.00;98.30;;;;;;5149578;23;20414;-82
2021/11/16 02:04:52;;;;;;;30.90;23.83;;;6.00;98.30;;;;;;5140741;23;20516;-82
2021/11/16 02:06:55;;;;;;;30.40;23.90;;;6.00;98.30;;;;;;5140777;23;20425;-82
2021/11/16 02:09:02;;;;;;;29.30;21.60;;;6.10;98.30;;;;;;5140228;23;20921;-82
2021/11/16 02:11:05;;;;;;;34.13;22.37;;;6.10;98.30;;;;;;5141795;23;20486;-81
2021/11/16 02:13:09;;;;;;;35.47;23.87;;;6.10;98.30;;;;;;5148850;23;20418;-82
2021/11/16 02:15:12;;;;;;;31.53;23.37;;;6.00;98.30;;;;;;5140372;23;20512;-82
2021/11/16 02:17:15;;;;;;;30.27;21.87;;;5.90;98.30;;;;;;5148481;23;20422;-82
2021/11/16 02:19:20;;;;;;;31.87;21.70;;;5.90;98.30;;;;;;5148042;23;20481;-82
2021/11/16 02:21:25;;;;;;;30.40;21.50;;;5.90;98.30;;;;;;5140590;23;20421;-82
2021/11/16 02:23:28;;;;;;;35.03;25.60;;;5.90;98.30;;;;;;5148364;23;20418;-82
2021/11/16 02:25:31;;;;;;;32.80;24.13;;;5.80;98.30;;;;;;5148970;23;20425;-82
2021/11/16 02:27:36;;;;;;;34.20;24.33;;;5.80;98.30;;;;;;5149237;23;20724;-82
2021/11/16 02:29:39;;;;;;;31.73;22.83;;;5.90;98.30;;;;;;5140016;23;20510;-82
2021/11/16 02:31:43;;;;;;;32.90;24.10;;;6.00;98.30;;;;;;5148772;23;20410;-81
2021/11/16 02:33:49;;;;;;;32.27;23.30;;;6.00;98.30;;;;;;5148486;23;20429;-82
2021/11/16 02:35:53;;;;;;;32.20;23.73;;;6.00;98.30;;;;;;5140826;23;20918;-82
2021/11/16 02:37:59;;;;;;;36.73;25.43;;;6.00;98.30;;;;;;5148766;23;20536;-82
2021/11/16 02:40:03;;;;;;;33.70;23.60;;;6.00;98.30;;;;;;5148677;23;20385;-82
2021/11/16 02:42:09;;;;;;;32.63;22.77;;;6.00;98.30;;;;;;5149532;23;20410;-81
2021/11/16 02:44:14;;;;;;;34.90;23.20;;;5.90;98.30;;;;;;5149370;23;20426;-82
2021/11/16 02:46:17;;;;;;;33.50;22.83;;;5.90;98.30;;;;;;5140830;23;20509;-81
2021/11/16 02:48:20;;;;;;;35.70;24.40;;;5.90;98.30;;;;;;5141281;23;20450;-82
2021/11/16 02:50:24;;;;;;;30.43;23.00;;;5.90;98.30;;;;;;5141143;23;20769;-82
2021/11/16 02:52:27;;;;;;;36.00;24.27;;;6.00;98.30;;;;;;5149634;23;21066;-82
2021/11/16 02:54:34;;;;;;;34.27;24.03;;;6.10;98.30;;;;;;5150100;23;20410;-82
2021/11/16 02:56:36;;;;;;;34.93;24.07;;;6.00;98.30;;;;;;5150450;23;20410;-81
2021/11/16 02:58:40;;;;;;;35.77;24.80;;;6.10;98.30;;;;;;5141667;23;20998;-81
2021/11/16 03:00:47;;;;;;;36.13;23.77;;;6.00;98.30;;;;;;5124640;22;20441;-79
2021/11/16 03:02:50;;;;;;;35.70;24.87;;;6.00;98.30;;;;;;5118643;23;20448;-80
2021/11/16 03:04:53;;;;;;;38.17;25.50;;;6.00;98.30;;;;;;5119221;23;20436;-80
2021/11/16 03:06:56;;;;;;;34.53;23.00;;;6.10;98.30;;;;;;5116262;23;20639;-80
2021/11/16 03:09:00;;;;;;;38.60;25.10;;;6.10;98.30;;;;;;5116277;23;20431;-80
2021/11/16 03:11:08;;;;;;;34.30;23.63;;;6.10;98.30;;;;;;5124589;23;20445;-80
2021/11/16 03:13:11;;;;;;;35.07;24.50;;;6.10;98.30;;;;;;5116530;23;20755;-80
2021/11/16 03:15:14;;;;;;;33.43;23.17;;;6.30;98.30;;;;;;5116606;23;20433;-80
2021/11/16 03:17:17;;;;;;;31.33;22.70;;;6.30;98.30;;;;;;5116419;23;20731;-80
2021/11/16 03:19:20;;;;;;;35.47;24.30;;;6.20;98.30;;;;;;5116281;23;20459;-80
2021/11/16 03:21:25;;;;;;;32.73;23.43;;;6.30;98.30;;;;;;5125017;23;20950;-79
2021/11/16 03:23:28;;;;;;;36.27;24.77;;;6.20;98.30;;;;;;5116709;23;20405;-80
2021/11/16 03:25:34;;;;;;;36.73;24.60;;;6.10;98.30;;;;;;5116831;23;20490;-80
2021/11/16 03:27:40;;;;;;;34.13;23.47;;;6.10;98.30;;;;;;5116851;23;20394;-80
2021/11/16 03:29:47;;;;;;;35.80;24.93;;;6.00;98.30;;;;;;5116204;23;20955;-80
2021/11/16 03:31:52;;;;;;;33.53;24.43;;;6.10;98.30;;;;;;5116406;23;20425;-80
2021/11/16 03:33:55;;;;;;;34.70;24.40;;;6.20;98.30;;;;;;5116773;23;20427;-79
2021/11/16 03:35:58;;;;;;;36.97;25.07;;;6.10;98.30;;;;;;5116585;23;20448;-80
2021/11/16 03:38:01;;;;;;;37.00;23.33;;;6.10;98.30;;;;;;5116826;23;20405;-80
2021/11/16 03:40:06;;;;;;;40.33;25.27;;;6.10;98.30;;;;;;5116511;23;20424;-79
2021/11/16 03:42:09;;;;;;;36.07;23.83;;;6.10;98.30;;;;;;5116919;23;20422;-79
2021/11/16 03:44:14;;;;;;;34.83;24.47;;;6.00;98.30;;;;;;5116856;23;20777;-79
2021/11/16 03:46:16;;;;;;;36.97;24.80;;;6.00;98.30;;;;;;5116731;23;20404;-79
2021/11/16 03:48:20;;;;;;;38.67;25.07;;;5.90;98.30;;;;;;5116234;23;20411;-79
2021/11/16 03:50:26;;;;;;;41.47;25.27;;;6.00;98.30;;;;;;5116237;23;20435;-80
2021/11/16 03:52:32;;;;;;;39.60;26.07;;;6.00;98.30;;;;;;5116321;23;21094;-80
2021/11/16 03:54:35;;;;;;;35.47;25.10;;;6.00;98.30;;;;;;5116668;23;20389;-79
2021/11/16 03:56:38;;;;;;;37.30;25.33;;;5.80;98.30;;;;;;5116601;23;20669;-80
2021/11/16 03:58:43;;;;;;;37.60;26.80;;;5.70;98.30;;;;;;5115939;23;20421;-80
2021/11/16 04:00:52;;;;;;;36.93;26.73;;;5.80;98.30;;;;;;5116481;23;20774;-79
2021/11/16 04:02:55;;;;;;;43.10;28.37;;;5.80;98.30;;;;;;5124385;23;20426;-79
2021/11/16 04:04:58;;;;;;;42.00;28.40;;;5.80;98.30;;;;;;5116623;23;20887;-79
2021/11/16 04:07:01;;;;;;;40.40;27.70;;;5.70;98.30;;;;;;5116236;23;20401;-79
2021/11/16 04:09:04;;;;;;;37.57;27.03;;;5.70;98.30;;;;;;5116305;23;20405;-80
2021/11/16 04:11:07;;;;;;;40.20;27.73;;;5.70;98.30;;;;;;5116467;23;20491;-80
2021/11/16 04:13:12;;;;;;;39.73;27.00;;;5.70;98.30;;;;;;5116374;23;20409;-80
2021/11/16 04:15:16;;;;;;;38.30;26.67;;;5.70;98.30;;;;;;5116586;23;20966;-80
2021/11/16 04:17:20;;;;;;;42.70;27.70;;;5.70;98.30;;;;;;5124852;23;20393;-80
2021/11/16 04:19:23;;;;;;;37.80;27.63;;;5.70;98.30;;;;;;5116760;23;20483;-78
2021/11/16 04:21:26;;;;;;;38.80;26.73;;;5.80;98.30;;;;;;5118686;23;20426;-81
2021/11/16 04:23:29;;;;;;;42.00;26.87;;;5.80;98.30;;;;;;5119212;23;20489;-80
2021/11/16 04:25:33;;;;;;;44.20;25.90;;;5.90;98.30;;;;;;5117746;23;20463;-79
2021/11/16 04:27:36;;;;;;;43.03;27.53;;;5.80;98.30;;;;;;5116298;23;20455;-79
2021/11/16 04:29:39;;;;;;;39.90;26.63;;;5.80;98.30;;;;;;5115920;23;20503;-79
2021/11/16 04:31:42;;;;;;;38.73;26.20;;;5.90;98.30;;;;;;5115946;23;20409;-79
2021/11/16 04:33:46;;;;;;;38.87;26.47;;;5.90;98.30;;;;;;5115947;23;20430;-78
2021/11/16 04:35:49;;;;;;;45.47;29.70;;;5.80;98.30;;;;;;5116242;23;20463;-79
2021/11/16 04:37:54;;;;;;;40.57;26.93;;;5.90;98.30;;;;;;5116362;23;21020;-79
2021/11/16 04:39:58;;;;;;;42.43;26.97;;;6.00;98.30;;;;;;5115439;23;20464;-79
2021/11/16 04:42:01;;;;;;;44.17;27.60;;;6.10;98.30;;;;;;5116107;23;20935;-80
2021/11/16 04:44:06;;;;;;;39.80;26.00;;;6.10;98.30;;;;;;5116451;23;20801;-79
2021/11/16 04:46:12;;;;;;;42.53;27.00;;;6.10;98.30;;;;;;5116297;23;20780;-79
2021/11/16 04:48:29;;;;;;;39.03;25.10;;;6.10;98.30;;;;;;5116132;23;20429;-80
2021/11/16 04:50:45;;;;;;;40.43;25.60;;;6.00;98.30;;;;;;5124105;23;20465;-79
2021/11/16 04:52:54;;;;;;;41.43;27.90;;;5.80;98.30;;;;;;5124669;23;20708;-80
2021/11/16 04:55:22;;;;;;;38.27;25.67;;;5.80;98.30;;;;;;5116349;23;20791;-78
2021/11/16 05:02:34;;;;;;;43.87;26.13;;;6.00;98.30;;;;;;5062179;23;20540;-80
2021/11/16 05:02:37;;;;;;;38.00;25.17;;;6.00;98.30;;;;;;5124602;23;20730;-81
2021/11/16 05:04:41;;;;;;;38.40;26.23;;;6.10;98.30;;;;;;5125631;23;20430;-82
2021/11/16 05:06:45;;;;;;;39.90;25.87;;;6.20;98.30;;;;;;5125010;23;20427;-79
2021/11/16 05:08:50;;;;;;;37.70;24.97;;;6.20;98.30;;;;;;5124594;23;20483;-79
2021/11/16 05:10:53;;;;;;;35.30;23.67;;;6.10;98.30;;;;;;5116076;23;20422;-80
2021/11/16 05:12:56;;;;;;;41.30;27.83;;;6.00;98.30;;;;;;5116231;23;20405;-80
2021/11/16 05:15:01;;;;;;;40.50;26.30;;;6.10;98.30;;;;;;5124643;23;20534;-79
2021/11/16 05:17:05;;;;;;;40.43;25.60;;;6.00;98.30;;;;;;5116448;23;20399;-79
2021/11/16 05:19:08;;;;;;;40.83;28.30;;;5.90;98.30;;;;;;5115783;23;20406;-80
2021/11/16 05:21:11;;;;;;;36.73;26.53;;;6.00;98.30;;;;;;5124191;23;20497;-80
2021/11/16 05:23:18;;;;;;;42.90;26.87;;;6.00;98.30;;;;;;5124529;23;20804;-79
2021/11/16 05:25:22;;;;;;;39.20;25.77;;;6.00;98.30;;;;;;5124767;23;20465;-79
2021/11/16 05:27:26;;;;;;;45.67;27.50;;;5.90;98.30;;;;;;5123773;23;20434;-81
2021/11/16 05:29:30;;;;;;;43.70;26.97;;;5.90;98.30;;;;;;5124656;23;20400;-80
2021/11/16 05:31:33;;;;;;;36.40;25.90;;;5.90;98.30;;;;;;5125303;23;20406;-80
2021/11/16 05:33:37;;;;;;;41.37;25.57;;;5.90;98.30;;;;;;5124295;23;20507;-80
2021/11/16 05:35:40;;;;;;;37.70;25.80;;;6.00;98.30;;;;;;5124755;23;20432;-80
2021/11/16 05:37:43;;;;;;;39.27;25.27;;;6.00;98.30;;;;;;5124783;23;20454;-81
2021/11/16 05:39:48;;;;;;;40.27;26.67;;;5.90;98.30;;;;;;5123929;23;20453;-80
2021/11/16 05:41:51;;;;;;;39.00;25.57;;;5.90;98.30;;;;;;5124420;23;20425;-80
2021/11/16 05:43:55;;;;;;;41.47;25.47;;;6.00;98.30;;;;;;5124301;23;20437;-81
2021/11/16 05:45:59;;;;;;;37.23;25.50;;;6.10;98.30;;;;;;5124676;23;20890;-82
2021/11/16 05:48:02;;;;;;;39.70;27.47;;;6.10;98.30;;;;;;5125117;23;20393;-80
2021/11/16 05:50:06;;;;;;;38.47;25.10;;;6.20;98.30;;;;;;5115472;23;20758;-81
2021/11/16 05:52:10;;;;;;;37.50;26.50;;;6.20;98.30;;;;;;5123888;23;20429;-80
2021/11/16 05:54:17;;;;;;;36.50;24.00;;;6.10;98.30;;;;;;5115198;23;20411;-81
2021/11/16 05:56:23;;;;;;;35.80;24.37;;;5.90;98.30;;;;;;5115435;23;20878;-80
2021/11/16 05:58:26;;;;;;;38.00;26.50;;;6.00;98.30;;;;;;5115402;23;20415;-81
2021/11/16 06:00:29;;;;;;;36.73;20.57;;;5.90;98.30;;;;;;5114727;23;20534;-80
2021/11/16 06:02:32;;;;;;;36.97;24.43;;;6.00;98.30;;;;;;5115470;23;20409;-80
2021/11/16 06:04:36;;;;;;;31.63;22.33;;;6.00;98.30;;;;;;5115326;23;20431;-80
2021/11/16 06:06:40;;;;;;;31.07;22.50;;;6.00;98.30;;;;;;5116532;23;20514;-80
2021/11/16 06:08:48;;;;;;;30.00;22.33;;;6.10;98.30;;;;;;5116560;23;20814;-81
2021/11/16 06:10:52;;;;;;;30.73;21.40;;;6.00;98.30;;;;;;5124414;23;20435;-80
2021/11/16 06:12:56;;;;;;;27.30;20.70;;;5.90;98.30;;;;;;5124586;23;20505;-79
2021/11/16 06:14:59;;;;;;;30.43;22.07;;;5.80;98.30;;;;;;5116366;23;20407;-80
2021/11/16 06:17:02;;;;;;;29.60;23.20;;;5.80;98.30;;;;;;5123890;23;20401;-80
2021/11/16 06:19:07;;;;;;;29.53;22.90;;;5.80;98.30;;;;;;5124236;23;20393;-80
2021/11/16 06:21:11;;;;;;;30.47;23.00;;;5.80;98.30;;;;;;5116120;23;20451;-80
2021/11/16 06:23:14;;;;;;;32.40;22.10;;;5.80;98.30;;;;;;5117826;23;20423;-80
2021/11/16 06:25:17;;;;;;;29.03;22.93;;;5.90;98.30;;;;;;5117853;23;20401;-80
2021/11/16 06:27:20;;;;;;;27.53;21.43;;;6.00;98.30;;;;;;5118327;23;20432;-80
2021/11/16 06:29:25;;;;;;;28.80;22.03;;;6.10;98.30;;;;;;5125376;23;20425;-80
2021/11/16 06:31:29;;;;;;;33.30;22.90;;;6.20;98.30;;;;;;5117741;23;20432;-79
2021/11/16 06:33:35;;;;;;;30.00;22.27;;;6.20;98.30;;;;;;5117674;23;20431;-80
2021/11/16 06:35:38;;;;;;;31.93;24.73;;;6.30;98.30;;;;;;5126321;23;20424;-81
2021/11/16 06:37:42;;;;;;;30.80;21.40;;;6.30;98.30;;;;;;5120789;23;20401;-80
2021/11/16 06:39:51;;;;;;;27.90;22.40;;;6.30;98.30;;;;;;5127623;23;20465;-81
2021/11/16 06:41:55;;;;;;;32.37;23.13;;;6.20;98.30;;;;;;5128192;23;20452;-80
2021/11/16 06:43:58;;;;;;;29.13;20.60;;;6.30;98.30;;;;;;5120608;23;20462;-79
2021/11/16 06:46:05;;;;;;;36.47;22.67;;;6.20;98.30;;;;;;5129114;23;20424;-80
2021/11/16 06:48:08;;;;;;;27.20;20.10;;;6.20;98.30;;;;;;5121028;23;20706;-80
2021/11/16 06:50:14;;;;;;;28.00;20.70;;;6.00;98.30;;;;;;5128028;23;20919;-80
2021/11/16 06:52:17;;;;;;;30.40;23.73;;;6.00;98.30;;;;;;5119283;23;20518;-81
2021/11/16 06:54:23;;;;;;;28.97;20.70;;;6.00;98.30;;;;;;5118817;23;20434;-81
2021/11/16 06:56:30;;;;;;;27.00;20.90;;;6.10;98.30;;;;;;5118252;23;20410;-80
2021/11/16 06:58:35;;;;;;;28.83;20.90;;;6.10;98.30;;;;;;5126254;23;20430;-80
2021/11/16 07:00:38;;;;;;;26.57;20.67;;;6.10;98.30;;;;;;5124966;23;20967;-80
2021/11/16 07:02:45;;;;;;;31.17;22.47;;;6.10;98.30;;;;;;5117434;23;20472;-80
2021/11/16 07:04:48;;;;;;;30.70;22.67;;;6.10;98.30;;;;;;5117987;23;20430;-80
2021/11/16 07:06:52;;;;;;;29.47;21.27;;;6.20;98.30;;;;;;5117891;23;20514;-81
2021/11/16 07:08:56;;;;;;;29.03;22.00;;;6.20;98.30;;;;;;5117098;23;20470;-81
2021/11/16 07:11:12;;;;;;;25.03;18.17;;;6.10;98.30;;;;;;5118126;23;20751;-81
2021/11/16 07:13:15;;;;;;;30.10;22.50;;;6.00;98.30;;;;;;5126107;23;20500;-80
2021/11/16 07:15:21;;;;;;;27.23;20.57;;;6.00;98.30;;;;;;5125799;23;20401;-80
2021/11/16 07:17:24;;;;;;;30.97;23.03;;;6.00;98.30;;;;;;5117856;23;20404;-80
2021/11/16 07:19:35;;;;;;;31.40;22.23;;;6.00;98.30;;;;;;5125618;23;20787;-80
2021/11/16 07:21:47;;;;;;;33.97;22.50;;;6.00;98.30;;;;;;5126184;23;20677;-80
2021/11/16 07:24:05;;;;;;;25.37;20.20;;;6.00;98.30;;;;;;5117669;23;20418;-81
2021/11/16 07:26:13;;;;;;;27.80;20.13;;;6.10;98.30;;;;;;5117442;23;20413;-80
2021/11/16 07:28:16;;;;;;;31.17;22.50;;;6.10;98.30;;;;;;5126063;23;20870;-80
2021/11/16 07:30:24;;;;;;;32.43;22.80;;;6.20;98.30;;;;;;5117261;23;20955;-79
2021/11/16 07:32:30;;;;;;;28.80;22.13;;;6.10;98.30;;;;;;5117910;23;20426;-79
2021/11/16 07:34:37;;;;;;;27.33;21.70;;;6.00;98.30;;;;;;5125614;23;20502;-80
2021/11/16 07:36:41;;;;;;;28.17;20.60;;;6.00;98.30;;;;;;5117695;23;20429;-80
2021/11/16 07:38:46;;;;;;;32.00;23.40;;;6.10;98.30;;;;;;5117057;23;20937;-81
2021/11/16 07:40:49;;;;;;;29.20;22.30;;;6.10;98.30;;;;;;5117350;23;20446;-80
2021/11/16 07:42:56;;;;;;;28.57;21.07;;;6.00;98.30;;;;;;5117310;23;20783;-81
2021/11/16 07:45:07;;;;;;;32.37;23.03;;;6.10;98.30;;;;;;5117562;23;20402;-80
2021/11/16 07:47:10;;;;;;;28.90;22.27;;;6.10;98.30;;;;;;5117540;23;20434;-81
2021/11/16 07:49:13;;;;;;;29.70;22.47;;;6.10;98.30;;;;;;5125395;23;20426;-81
2021/11/16 07:51:17;;;;;;;28.10;20.60;;;6.00;98.30;;;;;;5125843;23;20923;-80
2021/11/16 07:53:23;;;;;;;30.97;21.77;;;6.00;98.30;;;;;;5117993;23;20463;-81
2021/11/16 07:55:27;;;;;;;29.77;22.40;;;6.10;98.30;;;;;;5118251;23;20409;-80
2021/11/16 07:57:30;;;;;;;31.93;23.00;;;6.00;98.30;;;;;;5117820;23;20404;-81
2021/11/16 07:59:34;;;;;;;28.77;21.27;;;6.00;98.30;;;;;;5116748;23;20421;-79
2021/11/16 08:01:40;;;;;;;33.27;22.87;;;6.00;98.30;;;;;;5116880;23;20928;-80
2021/11/16 08:03:49;;;;;;;31.00;22.10;;;6.00;98.30;;;;;;5117326;23;20409;-80
2021/11/16 08:05:59;;;;;;;32.33;23.90;;;6.10;98.30;;;;;;5117359;23;20419;-80
2021/11/16 08:08:24;;;;;;;36.70;22.93;;;6.20;98.30;;;;;;5116991;23;20433;-80
2021/11/16 08:10:29;;;;;;;27.93;21.40;;;6.20;98.30;;;;;;5116523;23;20456;-80
2021/11/16 08:12:35;;;;;;;34.73;22.50;;;6.10;98.30;;;;;;5125987;23;20765;-80
2021/11/16 08:14:38;;;;;;;30.07;21.70;;;6.10;98.30;;;;;;5117095;23;20430;-80
2021/11/16 08:17:00;;;;;;;30.90;22.90;;;6.10;98.30;;;;;;5117248;23;20405;-81
2021/11/16 08:19:08;;;;;;;34.23;24.07;;;6.00;98.30;;;;;;5124623;23;20393;-79
2021/11/16 08:21:12;;;;;;;30.10;22.50;;;6.00;98.30;;;;;;5117221;23;20429;-80
2021/11/16 08:23:16;;;;;;;34.53;23.70;;;6.00;98.30;;;;;;5117205;23;20465;-80
2021/11/16 08:25:22;;;;;;;31.97;22.73;;;5.90;98.30;;;;;;5117061;23;20431;-79
2021/11/16 08:27:29;;;;;;;32.00;24.00;;;5.90;98.30;;;;;;5116625;23;20762;-80
2021/11/16 08:29:34;;;;;;;33.27;22.97;;;5.90;98.30;;;;;;5116709;23;20614;-79
2021/11/16 08:31:45;;;;;;;29.47;23.20;;;6.00;98.30;;;;;;5116967;23;20392;-80
2021/11/16 08:33:52;;;;;;;30.40;22.77;;;5.90;98.30;;;;;;5117105;23;20815;-79
2021/11/16 08:35:55;;;;;;;33.73;25.70;;;5.90;98.30;;;;;;5117231;23;20809;-80
2021/11/16 08:38:03;;;;;;;34.20;24.23;;;6.00;98.30;;;;;;5117017;23;20431;-80
2021/11/16 08:40:09;;;;;;;32.00;24.17;;;6.00;98.30;;;;;;5116426;23;20534;-80
2021/11/16 08:42:18;;;;;;;31.43;23.40;;;6.10;98.30;;;;;;5116957;23;20958;-79
2021/11/16 08:44:26;;;;;;;34.57;24.37;;;6.20;98.30;;;;;;5124936;23;20407;-81
2021/11/16 08:46:32;;;;;;;35.77;24.70;;;6.00;98.30;;;;;;5125101;23;20406;-81
2021/11/16 08:48:46;;;;;;;34.13;26.00;;;6.10;98.30;;;;;;5124532;23;20437;-81
2021/11/16 08:50:52;;;;;;;37.20;25.63;;;6.00;98.30;;;;;;5124446;23;20914;-79
2021/11/16 08:52:55;;;;;;;34.07;24.17;;;6.00;98.30;;;;;;5117403;23;20428;-80
2021/11/16 08:55:01;;;;;;;38.27;27.60;;;6.10;98.30;;;;;;5116504;23;20469;-79
2021/11/16 08:57:17;;;;;;;39.70;26.80;;;6.30;98.30;;;;;;5116742;23;20450;-80
2021/11/16 08:59:21;;;;;;;34.30;24.23;;;6.20;98.30;;;;;;5116637;23;20430;-80
2021/11/16 09:01:24;;;;;;;36.90;24.53;;;6.00;98.30;;;;;;5125173;23;20478;-79
2021/11/16 09:03:29;;;;;;;34.77;24.87;;;6.00;98.30;;;;;;5126084;23;20462;-79
2021/11/16 09:05:35;;;;;;;37.00;25.77;;;6.10;98.30;;;;;;5126848;23;20809;-79
2021/11/16 09:07:46;;;;;;;31.17;23.73;;;6.10;98.30;;;;;;5126460;23;20412;-79
2021/11/16 09:09:55;;;;;;;34.20;24.17;;;6.00;98.30;;;;;;5127255;23;20423;-79
2021/11/16 09:12:01;;;;;;;33.03;23.00;;;5.90;98.30;;;;;;5134930;23;20463;-79
2021/11/16 09:14:13;;;;;;;36.73;25.80;;;5.80;98.30;;;;;;5126598;23;20516;-79
2021/11/16 09:16:18;;;;;;;37.23;25.63;;;5.90;98.30;;;;;;5134725;23;20450;-79
2021/11/16 09:18:26;;;;;;;37.93;26.17;;;5.90;98.30;;;;;;5143633;23;20898;-79
2021/11/16 09:20:29;;;;;;;36.57;25.40;;;5.90;98.30;;;;;;5136073;23;20449;-79
2021/11/16 09:22:37;;;;;;;41.30;28.77;;;5.70;98.30;;;;;;5131313;23;20451;-79
2021/11/16 09:24:40;;;;;;;33.23;23.33;;;5.80;98.30;;;;;;5127514;23;20982;-79
2021/11/16 09:26:53;;;;;;;42.23;28.13;;;5.80;98.30;;;;;;5129309;23;20432;-79
2021/11/16 09:28:59;;;;;;;35.73;25.20;;;5.90;98.30;;;;;;5127225;23;20390;-79
2021/11/16 09:31:18;;;;;;;37.50;26.83;;;5.80;98.30;;;;;;5128693;23;20970;-79
2021/11/16 09:33:21;;;;;;;39.63;26.47;;;5.90;98.30;;;;;;5128818;23;20389;-78
2021/11/16 09:35:45;;;;;;;35.50;24.47;;;6.00;98.30;;;;;;5128482;23;20406;-79
2021/11/16 09:37:48;;;;;;;40.33;28.40;;;6.00;98.30;;;;;;5129441;23;20458;-79
2021/11/16 09:39:53;;;;;;;42.00;27.27;;;6.00;98.30;;;;;;5130006;23;20461;-79
2021/11/16 09:41:59;;;;;;;41.33;27.50;;;6.10;98.30;;;;;;5134442;23;20420;-79
2021/11/16 09:44:07;;;;;;;41.87;28.43;;;6.10;98.30;;;;;;5125805;23;20412;-79
2021/11/16 09:46:17;;;;;;;39.00;27.53;;;6.10;98.30;;;;;;5127387;23;20462;-79
2021/11/16 09:48:23;;;;;;;55.37;36.53;;;6.20;98.30;;;;;;5125819;23;20431;-79
2021/11/16 09:50:27;;;;;;;52.17;34.70;;;6.10;98.30;;;;;;5125150;23;20451;-79
2021/11/16 09:52:32;;;;;;;43.57;29.60;;;6.20;98.30;;;;;;5124754;23;20519;-79
2021/11/16 09:54:56;;;;;;;40.97;27.53;;;6.10;98.30;;;;;;5125233;23;20432;-79
2021/11/16 09:57:12;;;;;;;38.57;25.57;;;6.10;98.30;;;;;;5110621;23;20436;-79
2021/11/16 09:59:25;;;;;;;39.43;28.80;;;6.00;98.30;;;;;;5133614;23;20414;-79
2021/11/16 10:01:33;;;;;;;34.87;25.80;;;6.00;98.30;;;;;;5126051;23;20434;-79
2021/11/16 10:03:36;;;;;;;43.43;29.00;;;6.00;98.30;;;;;;5133940;23;20433;-79
2021/11/16 10:06:18;;;;;;;41.00;27.40;;;6.00;98.30;;;;;;5127294;23;20798;-79
2021/11/16 10:08:22;;;;;;;43.03;28.73;;;6.00;98.30;;;;;;5125965;23;20470;-79
2021/11/16 10:10:28;;;;;;;46.93;31.80;;;6.00;98.30;;;;;;5124713;23;20450;-79
2021/11/16 10:12:39;;;;;;;42.83;28.80;;;6.00;98.30;;;;;;5125384;23;20429;-79
2021/11/16 10:14:43;;;;;;;46.20;29.47;;;6.00;98.30;;;;;;5133036;23;20419;-79
2021/11/16 10:16:49;;;;;;;46.33;29.97;;;6.00;98.30;;;;;;5132537;23;20430;-79
2021/11/16 10:19:18;;;;;;;43.67;28.50;;;5.80;98.30;;;;;;5124054;23;20428;-79
2021/11/16 10:21:20;;;;;;;47.73;31.50;;;6.00;98.30;;;;;;5124354;23;20531;-79
2021/11/16 10:23:33;;;;;;;41.83;29.10;;;6.00;98.30;;;;;;5125657;23;20446;-80
2021/11/16 10:25:39;;;;;;;46.30;31.80;;;5.90;98.30;;;;;;5126292;23;20469;-80
2021/11/16 10:27:44;;;;;;;51.20;34.00;;;5.90;98.30;;;;;;5135433;23;20902;-79
2021/11/16 10:30:04;;;;;;;42.10;28.90;;;6.00;98.30;;;;;;5134675;23;20841;-80
2021/11/16 10:32:21;;;;;;;43.20;29.43;;;5.90;98.30;;;;;;5126814;23;20513;-80
2021/11/16 10:34:39;;;;;;;46.47;31.30;;;5.90;98.30;;;;;;5127259;23;20462;-79
2021/11/16 10:36:42;;;;;;;42.73;30.73;;;6.00;98.30;;;;;;5126585;23;20650;-80
2021/11/16 10:38:47;;;;;;;46.07;29.60;;;6.00;98.30;;;;;;5125472;23;20428;-80
2021/11/16 10:40:51;;;;;;;45.13;30.17;;;6.00;98.30;;;;;;5125981;23;20421;-79
2021/11/16 10:42:56;;;;;;;48.00;31.07;;;6.00;98.30;;;;;;5125731;23;20421;-80
2021/11/16 10:45:00;;;;;;;44.80;28.93;;;6.00;98.30;;;;;;5126290;23;20415;-80
2021/11/16 10:47:06;;;;;;;41.20;28.17;;;6.00;98.30;;;;;;5126699;23;20786;-80
2021/11/16 10:49:13;;;;;;;42.73;28.03;;;6.00;98.30;;;;;;5125940;23;20752;-80
2021/11/16 10:51:17;;;;;;;46.77;28.27;;;5.90;98.30;;;;;;5135219;23;20376;-79
2021/11/16 10:53:24;;;;;;;48.53;29.93;;;5.80;98.30;;;;;;5127537;23;20418;-80
2021/11/16 10:55:47;;;;;;;40.77;27.50;;;5.80;98.30;;;;;;5128305;23;20413;-80
2021/11/16 10:58:03;;;;;;;41.60;28.73;;;5.90;98.30;;;;;;5128419;23;20522;-80
2021/11/16 11:00:07;;;;;;;47.00;28.90;;;5.90;98.30;;;;;;5129180;23;20537;-80
2021/11/16 11:02:18;;;;;;;44.40;28.23;;;6.00;98.30;;;;;;5134847;23;20434;-80
2021/11/16 11:04:24;;;;;;;47.27;28.80;;;5.90;98.30;;;;;;5127424;23;20448;-80
2021/11/16 11:06:33;;;;;;;46.03;29.50;;;5.90;98.30;;;;;;5127644;23;20818;-79
2021/11/16 11:08:42;;;;;;;45.87;28.60;;;5.90;98.30;;;;;;5128291;23;20414;-80
2021/11/16 11:10:47;;;;;;;42.70;26.37;;;5.90;98.30;;;;;;5129317;23;20420;-80
2021/11/16 11:12:49;;;;;;;43.33;25.90;;;5.90;98.30;;;;;;5138221;23;20393;-79
2021/11/16 11:15:01;;;;;;;45.00;31.53;;;5.80;98.30;;;;;;5130370;23;20438;-79
2021/11/16 11:17:07;;;;;;;42.47;28.70;;;5.70;98.30;;;;;;5133276;23;20407;-79
2021/11/16 11:19:12;;;;;;;47.10;30.93;;;5.60;98.30;;;;;;5136222;23;20481;-79
2021/11/16 11:21:36;;;;;;;47.03;29.90;;;5.60;98.30;;;;;;5138776;23;20493;-79
2021/11/16 11:23:44;;;;;;;48.80;29.47;;;5.70;98.30;;;;;;5144935;23;20466;-80
2021/11/16 11:25:49;;;;;;;47.30;30.83;;;5.60;98.30;;;;;;5135586;23;20491;-80
2021/11/16 11:27:58;;;;;;;50.60;31.47;;;5.70;98.30;;;;;;5142182;23;20481;-79
2021/11/16 11:30:05;;;;;;;47.63;29.90;;;5.70;98.30;;;;;;5139458;23;20484;-79
2021/11/16 11:32:15;;;;;;;48.97;30.43;;;5.70;98.30;;;;;;5134216;23;20437;-80
2021/11/16 11:34:19;;;;;;;46.37;32.17;;;5.70;98.30;;;;;;5130624;23;20889;-79
2021/11/16 11:36:25;;;;;;;50.17;31.63;;;5.80;98.30;;;;;;5130284;23;20437;-80
2021/11/16 11:38:36;;;;;;;45.30;29.70;;;5.80;98.30;;;;;;5130586;23;20408;-79
2021/11/16 11:40:42;;;;;;;47.67;31.57;;;5.90;98.30;;;;;;5129390;23;20482;-80
2021/11/16 11:42:49;;;;;;;48.07;30.47;;;6.00;98.30;;;;;;5129187;23;20442;-80
2021/11/16 11:45:07;;;;;;;46.40;29.00;;;6.00;98.30;;;;;;5129411;23;20513;-80
2021/11/16 11:47:11;;;;;;;46.83;28.80;;;6.00;98.30;;;;;;5130001;23;20496;-80
2021/11/16 11:49:14;;;;;;;47.50;30.20;;;6.00;98.30;;;;;;5128529;23;20451;-80
2021/11/16 11:51:17;;;;;;;46.07;29.93;;;5.90;98.30;;;;;;5129451;23;20845;-80
2021/11/16 11:53:25;;;;;;;45.03;28.37;;;5.90;98.30;;;;;;5129289;23;20402;-80
2021/11/16 11:55:31;;;;;;;45.17;29.40;;;5.90;98.30;;;;;;5137600;23;20406;-80
2021/11/16 11:57:35;;;;;;;46.67;30.57;;;5.90;98.30;;;;;;5129161;23;20409;-79
2021/11/16 11:59:38;;;;;;;43.90;29.10;;;5.90;98.30;;;;;;5128275;23;20874;-80
2021/11/16 12:01:42;;;;;;;46.43;29.03;;;5.90;98.30;;;;;;5136853;23;20405;-80
2021/11/16 12:03:47;;;;;;;45.10;27.20;;;5.90;98.30;;;;;;5137336;23;20986;-80
2021/11/16 12:05:51;;;;;;;43.57;28.43;;;5.90;98.30;;;;;;5136652;23;20469;-79
2021/11/16 12:07:55;;;;;;;47.87;30.60;;;5.80;98.30;;;;;;5136826;23;20401;-80